Ritsu Inoue

Chefscout - Vegalta Sendai
19 Aug 2027
Donnerstag
Verarbeitung

Persönlichkeit

Anpassungsfähigkeit (7) Ehrgeiz (3) Kontroverse (5) Loyalität (5) Druck (11) Professionalität (14) Fairness (17) Temperament (19)

Profil

Trainerstil Demokratisch
Lizenz Kontinentale C
Entschlossenheit 9
Menschenführung 4
Motivation 4
Disziplin 6
Arbeitszufriedenheit
90%
Ermüdung
0%
Rolle Chefscout
Gehalt 40.2K p/W
Vertrag 14.03.2028

Leistung

Verhalten Gut
Trainingseffektivität
34%
Spielerentwicklung
30%
Verletzungsprävention
50%
Taktische Umsetzung
50%

Letzte Ereignisse

Nahm an einer Scouting-Besprechung teil 7T her
Empfahl ein Transferziel 7T her
Nahm an einer Scouting-Besprechung teil 14T her
Empfahl ein Transferziel 14T her
Nahm an einer Scouting-Besprechung teil 21T her
Empfahl ein Transferziel 21T her
Nahm an einer Scouting-Besprechung teil 28T her
Spieler begutachtet 28T her

Aktuell beobachtet

137
Spieler Verein Status Fähigkeit Vertrauen Beobachtet Zuletzt beobachtet Letzte Stimme
Sam Nombe Milton Keynes Dons Aktiv 108 / 118 40% 1 21.07.2027 -
Rey Manaj Sivasspor Aktiv 129 / 129 40% 1 21.07.2027 -
Marcos Cuenca Zaragoza Aktiv 124 / 105 40% 1 21.07.2027 -
Bosun Lawal Stoke City Aktiv 134 / 120 40% 1 16.02.2027 -
Lucas Da Cunha Como Aktiv 130 / 138 40% 1 16.02.2027 -
Tomás Ribeiro Cultural Leonesa Aktiv 128 / 113 40% 1 11.02.2027 -
Lukáš Červ Viktoria Plzen Aktiv 140 / 132 40% 2 09.02.2027 -
Will Fish Cardiff City Aktiv 115 / 121 40% 1 09.02.2027 -
Yushin Otake Albirex Niigata Aktiv 82 / 96 62% 1 08.02.2027 Befürworten
James Morris Leyton Orient Aktiv 109 / 107 40% 2 07.02.2027 -
Nicolas Madsen Queens Park Rangers Aktiv 144 / 139 40% 1 07.02.2027 -
Ki-Jana Hoever Sparta Prague Aktiv 140 / 125 40% 1 04.02.2027 -
Milan van Ewijk Mansfield Town Aktiv 130 / 136 40% 1 04.02.2027 -
Ilir Krasniqi Polissia Aktiv 111 / 106 40% 1 03.02.2027 -
Oliver Skipp Leicester City Aktiv 130 / 138 40% 1 03.02.2027 -
Kristoffer Lund Birmingham Aktiv 133 / 124 40% 2 02.02.2027 -
Jack Currie Oxford United Aktiv 134 / 129 40% 1 02.02.2027 -
Ethan Galbraith Swansea City Aktiv 138 / 139 40% 2 01.02.2027 -
Dennis Cirkin Queens Park Rangers Aktiv 117 / 133 40% 1 31.01.2027 -
Shea Charles Southampton Aktiv 148 / 126 40% 1 31.01.2027 -
Aidan Morris Middlesbrough Aktiv 121 / 129 40% 2 29.01.2027 -
Zak Swanson Bradford City Aktiv 111 / 106 40% 1 24.01.2027 -
Christos Mouzakitis Hull City Aktiv 129 / 138 40% 2 23.01.2027 -
Alexandr Chernikov Krasnodar Aktiv 128 / 140 40% 1 21.01.2027 -
Pelle Mattsson Norwich City Aktiv 113 / 121 40% 2 20.01.2027 -
Andre Dozzell Doncaster Rovers Aktiv 103 / 121 40% 1 20.01.2027 -
Tariq Lamptey Queens Park Rangers Aktiv 149 / 137 40% 1 19.01.2027 -
Alassana Jatta Notts County Aktiv 120 / 106 40% 1 18.01.2027 -
Derensili Sanches Fernandes Huddersfield Town Aktiv 122 / 122 40% 1 11.01.2027 -
Dom Ballard Leyton Orient Aktiv 123 / 116 40% 2 04.01.2027 -
Tyler Goodrham Oxford United Aktiv 108 / 117 40% 1 02.01.2027 -
Mathias Jørgensen Blackburn Rovers Aktiv 130 / 116 40% 1 01.01.2027 -
Kenny Tete Fulham Aktiv 130 / 140 40% 1 01.01.2027 -
Kein Sato FC Tokyo Aktiv 126 / 128 40% 5 30.12.2026 -
David Ankeye Zeleznicar Pancevo Aktiv 104 / 123 40% 1 30.12.2026 -
Stav Toriel Hapoel Tel Aviv Aktiv 131 / 123 40% 5 27.12.2026 -
Tomás González Piast Aktiv 123 / 123 40% 5 26.12.2026 -
Callum O'Hare Sheffield United Aktiv 126 / 132 40% 2 26.12.2026 -
Aune Heggebø West Bromwich Albion Aktiv 123 / 132 40% 3 26.12.2026 -
Julián Quiñones Lokomotiv Moscow Aktiv 160 / 148 40% 2 25.12.2026 -
Dávid Strelec Middlesbrough Aktiv 144 / 136 40% 1 25.12.2026 -
Nicolás Contín MFK Ruzomberok Aktiv 104 / 116 40% 3 22.12.2026 -
Aaron Collins Milton Keynes Dons Aktiv 118 / 114 40% 1 22.12.2026 -
Petar Musa Adana Demirspor Aktiv 129 / 143 40% 1 22.12.2026 -
Marezi Portsmouth Aktiv 112 / 124 40% 2 21.12.2026 -
Everton Bala Levski Aktiv 128 / 134 40% 1 20.12.2026 -
Martin Sekulić Ural Aktiv 121 / 113 40% 1 18.12.2026 -
Erison Kawasaki Frontale Aktiv 141 / 123 40% 1 17.12.2026 -
Scott Twine Bristol City Aktiv 131 / 132 40% 1 16.12.2026 -
Alejandro Melo Cibalia Aktiv 103 / 125 40% 3 14.12.2026 -
Daniel Vašulín Zbrojovka Brno Aktiv 100 / 110 40% 1 14.12.2026 -
Malik Mothersille Stockport County Aktiv 112 / 122 40% 1 12.12.2026 -
Cameron Archer Southampton Aktiv 120 / 125 40% 1 12.12.2026 -
Razvan Balasa Crvena Zvezda Aktiv 163 / 140 40% 4 11.12.2026 Beobachten
Ramiro Ruiz Rodríguez Atlético Tucumán Aktiv 120 / 118 40% 3 08.12.2026 -
Ross McCrorie Bristol City Aktiv 132 / 122 40% 2 08.12.2026 -
José Martínes CSKA 1948 Aktiv 102 / 102 40% 1 08.12.2026 -
Jack Rudoni Coventry City Aktiv 127 / 134 40% 1 06.12.2026 -
Elijah Adebayo Luton Town Aktiv 126 / 126 40% 2 03.12.2026 -
Josh Koroma Leyton Orient Aktiv 121 / 109 40% 1 03.12.2026 -
Ilyas Ansah Hull City Aktiv 141 / 133 40% 1 02.12.2026 -
Emmanuel Dennis Brondby Aktiv 124 / 125 40% 1 01.12.2026 -
Yousef Salech Cardiff City Aktiv 118 / 134 40% 3 29.11.2026 -
Ross Stewart Southampton Aktiv 140 / 116 40% 1 29.11.2026 -
Gabriel Jesus Barcelona Aktiv 162 / 149 40% 8 27.11.2026 -
Luka Kurtovic NK Domzale Aktiv 119 / 125 40% 2 27.11.2026 -
Agustín Módica Gimnasia y Esgrima Aktiv 114 / 119 40% 2 26.11.2026 -
Bertrand Traoré Sunderland Aktiv 147 / 132 40% 1 26.11.2026 -
Tommy Conway Middlesbrough Aktiv 114 / 123 40% 2 26.11.2026 -
Will Lankshear Middlesbrough Aktiv 113 / 122 40% 1 23.11.2026 -
Patson Daka Leicester City Aktiv 121 / 122 40% 1 23.11.2026 -
Harry Cornick AFC Wimbledon Aktiv 95 / 108 40% 1 22.11.2026 -
Morgan Whittaker Middlesbrough Aktiv 143 / 120 40% 1 21.11.2026 -
Tio Cipot NK Maribor Aktiv 114 / 111 40% 1 20.11.2026 -
Leo Ceara Kashima Antlers Aktiv 144 / 137 40% 3 19.11.2026 -
Yoane Wissa Newcastle United Aktiv 151 / 133 40% 1 18.11.2026 -
Antony Alonso Deportivo Riestra Aktiv 126 / 124 40% 3 16.11.2026 -
Vegard Erlien Tromso Aktiv 118 / 121 40% 1 16.11.2026 -
Ola Brynhildsen Bodo/Glimt Aktiv 139 / 133 40% 3 13.11.2026 -
Bamba Dieng Crvena Zvezda Aktiv 138 / 122 40% 3 13.11.2026 -
Sota Kitano Luzern Aktiv 125 / 117 40% 1 13.11.2026 -
Mutsuki Kato Sanfrecce Hiroshima Aktiv 120 / 136 40% 3 11.11.2026 -
Tomás Molina Argentinos Juniors Aktiv 130 / 127 40% 1 11.11.2026 -
Diego García Malmo FF Aktiv 129 / 127 40% 2 10.11.2026 -
Cho Gue-Sung FC Midtjylland Aktiv 136 / 135 40% 1 10.11.2026 -
Ryo Germain Sanfrecce Hiroshima Aktiv 125 / 130 40% 1 04.11.2026 -
Dean David Yokohama F. Marinos Aktiv 112 / 119 40% 3 02.11.2026 -
Nicolás Cordero Aldosivi Aktiv 121 / 122 40% 1 01.11.2026 -
Ignacio Ramírez Newell's Old Boys Aktiv 124 / 117 40% 1 01.11.2026 -
Jonás Acevedo Instituto Aktiv 124 / 120 40% 1 30.10.2026 -
Santiago Rodríguez Gimnasia y Esgrima Aktiv 116 / 118 40% 1 30.10.2026 -
Ivan Sergeev Dinamo Moscow Aktiv 140 / 118 40% 2 29.10.2026 -
Luca Martínez Dupuy Godoy Cruz Aktiv 125 / 115 40% 1 28.10.2026 -
Yuta Goke Vissel Kobe Aktiv 124 / 115 40% 1 27.10.2026 -
Salah Mohsen El Masry Aktiv 117 / 124 40% 1 27.10.2026 -
Victor Adeboyejo Ismaily Aktiv 105 / 100 40% 1 25.10.2026 -
David Barbona Defensa y Justicia Aktiv 114 / 127 40% 1 24.10.2026 -
Sead Hakšabanović Malmo FF Aktiv 133 / 131 40% 3 23.10.2026 -
Asahi Uenaka Gamba Osaka Aktiv 127 / 119 40% 2 23.10.2026 -
Daiya Tono Yokohama F. Marinos Aktiv 121 / 123 40% 4 21.10.2026 -
Ado Onaiwu Urawa Reds Aktiv 122 / 108 40% 1 19.10.2026 -
Oleksii Hutsuliak Polissia Aktiv 112 / 137 40% 2 16.10.2026 -
Samuel Essende Young Boys Aktiv 119 / 116 40% 1 16.10.2026 -
Akito Suzuki Sanfrecce Hiroshima Aktiv 116 / 117 40% 1 15.10.2026 -
Omar Faraj Halmstad Aktiv 119 / 108 40% 1 12.10.2026 -
Enzo Avaro Odd Aktiv 117 / 105 40% 1 12.10.2026 -
Fabricio Rojas Gimnasia y Tiro Aktiv 102 / 109 40% 1 11.10.2026 -
Deniz Hümmet Gamba Osaka Aktiv 123 / 120 40% 1 10.10.2026 -
Daiju Sasaki Vissel Kobe Aktiv 128 / 109 40% 1 07.10.2026 -
Chihiro Konagaya Albirex Niigata Aktiv 122 / 113 40% 1 07.10.2026 -
Denzel Jubitana Neftchi Aktiv 132 / 122 40% 1 06.10.2026 -
Hansel Zapata Botev Plovdiv Aktiv 104 / 99 40% 1 05.10.2026 -
Yudai Kimura Nagoya Grampus Aktiv 115 / 102 40% 2 04.10.2026 -
Ola Solbakken FC Nordsjaelland Aktiv 129 / 113 40% 1 02.10.2026 -
Daniel Karlsbakk Sarpsborg 08 Aktiv 133 / 125 40% 1 01.10.2026 -
Assad Al Hamlawi Universitatea Craiova Aktiv 108 / 132 40% 2 30.09.2026 -
Ammar Ramadan DAC Dunajska Streda Aktiv 114 / 120 40% 2 30.09.2026 -
Harumi Minamino Urawa Reds Aktiv 112 / 115 40% 1 30.09.2026 -
Samuel Anakwe Remo Stars Aktiv 86 / 86 40% 1 29.09.2026 -
Kaina Tanimura Yokohama F. Marinos Aktiv 119 / 115 40% 2 27.09.2026 -
Erik Prekop Gornik Zabrze Aktiv 110 / 114 40% 1 27.09.2026 Mehr Infos nötig
David Miculescu FCSB Aktiv 125 / 117 40% 1 24.09.2026 -
Timothy Zechariah Rivers United Aktiv 96 / 103 40% 1 23.09.2026 -
Koki Ogawa Jubilo Iwata Aktiv 128 / 117 40% 2 20.09.2026 -
Yuki Kakita Kashima Antlers Aktiv 120 / 125 40% 1 20.09.2026 -
Sunday Megwo Abia Warriors Aktiv 99 / 109 40% 1 16.09.2026 -
Marcus Vinicius Nagoya Grampus Aktiv 109 / 108 40% 1 16.09.2026 -
Nahuel Ulariaga Hapoel Beer Sheva Aktiv 119 / 116 40% 1 15.09.2026 -
Derik Lacerda Kawasaki Frontale Aktiv 124 / 115 40% 1 15.09.2026 -
Yota Komi Kashiwa Reysol Aktiv 117 / 120 40% 1 13.09.2026 -
Youssoufa Moukoko FC Copenhagen Aktiv 140 / 138 40% 1 11.09.2026 -
Hiroto Yamada Shonan Bellmare Aktiv 108 / 100 40% 1 10.09.2026 -
Matheus Peixoto Jubilo Iwata Aktiv 104 / 111 40% 1 10.09.2026 -
Edward Chilufya FC Midtjylland Aktiv 131 / 106 40% 1 10.09.2026 -
Kristian Strømland Lien Djurgarden Aktiv 133 / 118 40% 1 07.09.2026 -
Jo Sagan Tosu Aktiv 92 / 96 58% 1 17.08.2026 -
Jhonatan Candia Barracas Central Aktiv 132 / 126 40% 1 02.08.2026 -